Time;durP1;ratioP1;P1;durP2;ratioP2;P2;SDS_P1;SDS_P2;PMS_P1;PMS_P2;Temp;Humidity;BMP_temperature;BMP_pressure;BME280_temperature;BME280_humidity;BME280_pressure;Samples;Min_cycle;Max_cycle;Signal;HPM_P1;HPM_P2
2024/03/02 00:05:57;;;;;;;3.45;1.10;;;9.10;1.00;;;;;;20661902;28;20940;-40
2024/03/02 00:15:58;;;;;;;1.30;0.25;;;9.00;1.00;;;;;;20688467;28;20443;-40
2024/03/02 00:25:59;;;;;;;0.60;0.10;;;8.50;1.00;;;;;;20685715;28;20041;-41
2024/03/02 00:36:03;;;;;;;0.93;0.20;;;8.00;1.00;;;;;;20678210;28;20061;-41
2024/03/02 00:46:03;;;;;;;0.60;0.20;;;7.80;12.90;;;;;;20682863;28;20034;-41
2024/03/02 00:56:08;;;;;;;1.95;0.20;;;7.40;42.70;;;;;;20684973;28;20097;-40
2024/03/02 01:06:09;;;;;;;0.38;0.20;;;7.30;69.80;;;;;;20683131;28;20040;-41
2024/03/02 01:16:10;;;;;;;1.17;0.57;;;7.20;79.80;;;;;;20683318;28;20034;-40
2024/03/02 01:26:10;;;;;;;0.82;0.30;;;7.20;90.40;;;;;;20684482;28;20494;-40
2024/03/02 01:36:11;;;;;;;1.13;0.43;;;7.20;92.30;;;;;;20677188;28;20049;-41
2024/03/02 01:46:11;;;;;;;2.03;0.60;;;7.10;96.70;;;;;;20683407;28;20043;-41
2024/03/02 01:56:12;;;;;;;1.47;0.50;;;7.00;99.90;;;;;;20670414;28;20637;-40
2024/03/02 02:06:13;;;;;;;2.50;0.60;;;7.00;99.90;;;;;;20683357;28;20521;-41
2024/03/02 02:16:14;;;;;;;1.08;0.50;;;7.00;99.90;;;;;;20679461;28;20042;-40
2024/03/02 02:26:14;;;;;;;1.30;0.50;;;7.00;99.90;;;;;;20681611;28;20046;-40
2024/03/02 02:36:15;;;;;;;1.88;0.50;;;7.00;99.40;;;;;;20678368;28;20065;-40
2024/03/02 02:46:16;;;;;;;2.15;0.52;;;6.90;95.00;;;;;;20679378;28;20038;-41
2024/03/02 02:56:17;;;;;;;1.92;0.70;;;6.80;93.40;;;;;;20676694;28;20041;-40
2024/03/02 03:06:17;;;;;;;3.22;0.80;;;6.90;91.10;;;;;;20674550;28;20038;-40
2024/03/02 03:16:18;;;;;;;2.42;0.70;;;6.90;86.70;;;;;;20678295;28;20046;-40
2024/03/02 03:26:18;;;;;;;1.17;0.35;;;6.90;73.80;;;;;;20675679;28;20501;-40
2024/03/02 03:36:19;;;;;;;1.97;0.50;;;6.90;55.30;;;;;;20674983;28;20099;-41
2024/03/02 03:46:19;;;;;;;1.75;0.65;;;6.90;43.30;;;;;;20676087;28;20030;-41
2024/03/02 03:56:20;;;;;;;1.10;0.40;;;6.90;38.20;;;;;;20670909;28;20475;-41
2024/03/02 04:06:21;;;;;;;0.90;0.50;;;6.90;35.70;;;;;;20672835;28;20585;-40
2024/03/02 04:16:21;;;;;;;2.53;0.47;;;7.00;34.80;;;;;;20668740;28;20038;-40
2024/03/02 04:26:22;;;;;;;3.00;0.70;;;7.00;32.10;;;;;;20667193;28;20042;-40
2024/03/02 04:36:23;;;;;;;1.58;0.40;;;6.90;28.60;;;;;;20666843;28;20073;-40
2024/03/02 04:46:24;;;;;;;1.05;0.55;;;6.90;25.10;;;;;;20670629;28;20034;-40
2024/03/02 05:06:31;;;;;;;2.37;0.43;;;6.80;25.70;;;;;;20687702;28;20040;-40
2024/03/02 05:16:38;;;;;;;1.73;0.30;;;6.70;28.10;;;;;;20682559;28;20038;-39
2024/03/02 05:26:38;;;;;;;2.13;0.43;;;6.60;27.10;;;;;;20686185;28;20045;-40
2024/03/02 05:36:39;;;;;;;1.75;0.60;;;6.60;31.50;;;;;;20682284;28;20057;-40
2024/03/02 05:46:40;;;;;;;1.25;0.38;;;6.50;28.50;;;;;;20680198;28;20034;-40
2024/03/02 05:56:40;;;;;;;3.45;0.60;;;6.50;26.40;;;;;;20677708;28;20101;-40
2024/03/02 06:06:41;;;;;;;2.22;0.45;;;6.60;21.70;;;;;;20676512;28;20494;-40
2024/03/02 06:16:42;;;;;;;1.83;0.47;;;6.60;10.70;;;;;;20683444;28;20046;-40
2024/03/02 06:26:42;;;;;;;2.90;0.77;;;6.70;5.40;;;;;;20672991;28;20056;-40
2024/03/02 06:36:43;;;;;;;1.38;0.50;;;6.90;4.50;;;;;;20679121;28;20819;-40
2024/03/02 06:46:44;;;;;;;4.47;0.73;;;6.80;5.70;;;;;;20677651;28;20062;-40
2024/03/02 06:56:44;;;;;;;2.25;0.47;;;6.80;5.80;;;;;;20677357;28;20579;-40
2024/03/02 07:06:45;;;;;;;1.20;0.40;;;6.80;3.30;;;;;;20673296;28;20505;-40
2024/03/02 07:16:47;;;;;;;4.40;0.47;;;6.80;1.00;;;;;;20672736;28;20183;-40
2024/03/02 07:26:48;;;;;;;2.33;0.57;;;6.90;1.00;;;;;;20676742;28;20509;-40
2024/03/02 07:36:48;;;;;;;2.30;0.40;;;7.00;1.00;;;;;;20674014;28;20488;-41
2024/03/02 07:46:52;;;;;;;1.80;0.38;;;7.10;1.00;;;;;;20670631;28;20457;-40
2024/03/02 07:56:53;;;;;;;3.67;0.65;;;7.20;1.00;;;;;;20624541;28;20405;-40
2024/03/02 08:06:54;;;;;;;2.17;0.60;;;7.10;1.00;;;;;;20661891;28;20449;-40
2024/03/02 08:21:44;;;;;;;3.38;0.50;;;7.50;1.00;;;;;;20898678;27;20129;-41
2024/03/02 08:31:45;;;;;;;4.22;0.60;;;7.60;1.00;;;;;;20870417;28;20041;-40
2024/03/02 08:41:46;;;;;;;3.05;0.52;;;8.00;1.00;;;;;;20871921;28;20040;-40
2024/03/02 08:51:54;;;;;;;2.10;0.40;;;8.20;1.00;;;;;;20814853;28;20033;-41
2024/03/02 09:01:55;;;;;;;4.22;0.75;;;8.50;1.00;;;;;;20667414;28;98194;-41
2024/03/02 09:11:57;;;;;;;4.30;0.50;;;8.80;1.00;;;;;;20780005;28;20048;-41
2024/03/02 09:21:58;;;;;;;6.32;0.80;;;9.00;1.00;;;;;;20832226;28;20771;-40
2024/03/02 09:31:59;;;;;;;2.90;0.50;;;9.20;1.00;;;;;;20786502;28;20037;-41
2024/03/02 09:41:59;;;;;;;3.67;0.68;;;9.50;1.00;;;;;;20758960;28;20504;-41
2024/03/02 09:52:01;;;;;;;5.10;0.57;;;9.70;1.00;;;;;;20765462;28;20092;-41
2024/03/02 10:02:03;;;;;;;4.80;0.60;;;9.90;1.00;;;;;;20756586;28;20046;-40
2024/03/02 10:12:05;;;;;;;5.43;0.80;;;9.70;1.00;;;;;;20779379;28;20041;-41
2024/03/02 10:22:09;;;;;;;4.78;0.90;;;10.00;1.00;;;;;;20767552;28;20200;-41
2024/03/02 10:32:13;;;;;;;5.45;0.98;;;10.30;1.00;;;;;;20757290;28;20026;-41
2024/03/02 10:42:14;;;;;;;3.47;0.68;;;10.70;1.00;;;;;;20779175;28;20542;-41
2024/03/02 10:52:15;;;;;;;3.88;0.68;;;11.10;1.00;;;;;;20780425;28;20036;-41
2024/03/02 11:02:17;;;;;;;4.00;0.77;;;11.10;1.00;;;;;;20764965;28;20041;-41
2024/03/02 11:12:28;;;;;;;2.78;0.68;;;11.30;1.00;;;;;;20775695;28;20103;-41
2024/03/02 11:22:29;;;;;;;5.55;1.00;;;11.80;1.00;;;;;;20770103;28;20501;-41
2024/03/02 11:32:30;;;;;;;4.32;0.52;;;12.50;1.00;;;;;;20776638;28;20471;-41
2024/03/02 11:42:31;;;;;;;6.43;0.80;;;12.70;1.00;;;;;;20779069;28;20067;-39
2024/03/02 11:52:31;;;;;;;4.53;0.60;;;13.00;1.00;;;;;;20786760;28;20532;-41
2024/03/02 12:02:32;;;;;;;5.20;0.63;;;13.60;1.00;;;;;;20771469;28;20037;-41
2024/03/02 12:12:33;;;;;;;1.67;0.57;;;13.90;1.00;;;;;;20765710;28;20049;-41
2024/03/02 12:22:33;;;;;;;3.35;1.10;;;13.60;1.00;;;;;;20753130;28;20415;-40
2024/03/02 12:32:34;;;;;;;3.13;0.47;;;13.60;1.00;;;;;;20763224;28;20045;-41
2024/03/02 12:42:35;;;;;;;3.75;0.60;;;14.80;1.00;;;;;;20769700;28;20038;-41
2024/03/02 12:52:36;;;;;;;4.65;0.50;;;14.40;1.00;;;;;;20769769;28;20116;-42
2024/03/02 13:02:40;;;;;;;2.67;0.75;;;14.70;1.00;;;;;;20787652;28;20032;-41
2024/03/02 13:12:41;;;;;;;2.75;0.80;;;14.80;1.00;;;;;;20732828;28;20052;-42
2024/03/02 13:22:41;;;;;;;4.18;0.70;;;15.00;1.00;;;;;;20753252;28;20037;-47
2024/03/02 13:32:42;;;;;;;3.75;0.70;;;15.50;1.00;;;;;;20769054;28;20049;-39
2024/03/02 13:42:43;;;;;;;5.72;0.75;;;15.80;1.00;;;;;;20724205;28;20241;-39
2024/03/02 13:52:44;;;;;;;4.25;0.70;;;14.60;1.00;;;;;;20768466;28;20130;-39
2024/03/02 14:02:46;;;;;;;2.65;0.60;;;13.50;1.00;;;;;;20754744;28;20073;-39
2024/03/02 14:12:47;;;;;;;6.40;2.15;;;13.40;1.00;;;;;;20767999;28;20053;-39
2024/03/02 14:22:48;;;;;;;5.22;1.50;;;13.30;1.00;;;;;;20761646;28;20145;-38
2024/03/02 14:32:49;;;;;;;4.50;0.82;;;13.70;1.00;;;;;;20761634;28;20061;-39
2024/03/02 14:42:49;;;;;;;2.97;0.97;;;14.20;1.00;;;;;;20756223;28;20492;-39
2024/03/02 14:52:50;;;;;;;3.92;1.00;;;15.50;1.00;;;;;;20759194;28;20472;-39
2024/03/02 15:02:51;;;;;;;3.00;1.00;;;14.30;1.00;;;;;;20762847;28;20053;-39
2024/03/02 15:12:51;;;;;;;3.45;0.88;;;13.30;1.00;;;;;;20758735;28;20472;-39
2024/03/02 15:22:52;;;;;;;4.68;1.10;;;13.10;1.00;;;;;;20742982;28;20469;-39
2024/03/02 15:32:53;;;;;;;2.95;1.35;;;13.00;1.00;;;;;;20718911;28;20045;-39
2024/03/02 15:42:53;;;;;;;1.92;0.63;;;12.90;1.00;;;;;;20759642;28;20639;-39
2024/03/02 15:52:57;;;;;;;4.57;1.00;;;12.70;1.00;;;;;;20760819;28;20046;-39
2024/03/02 16:02:58;;;;;;;4.25;0.90;;;12.70;1.00;;;;;;20760134;28;20619;-39
2024/03/02 16:12:59;;;;;;;1.77;0.70;;;12.80;1.00;;;;;;20766746;28;20493;-39
2024/03/02 16:23:00;;;;;;;4.30;0.90;;;12.80;1.00;;;;;;20762517;28;20485;-39
2024/03/02 16:33:01;;;;;;;3.45;0.77;;;12.70;1.00;;;;;;20767560;28;20045;-39
2024/03/02 16:43:01;;;;;;;4.18;0.90;;;12.80;1.00;;;;;;20789190;28;20069;-39
2024/03/02 16:53:03;;;;;;;1.85;0.60;;;12.80;1.00;;;;;;20801226;28;20049;-39
2024/03/02 17:03:04;;;;;;;5.07;0.90;;;12.80;1.00;;;;;;20787401;28;20704;-39
2024/03/02 17:13:05;;;;;;;5.13;1.10;;;12.60;1.00;;;;;;20785156;28;20038;-39
2024/03/02 17:23:07;;;;;;;4.20;1.13;;;12.50;1.00;;;;;;20791203;28;20040;-40
2024/03/02 17:33:08;;;;;;;4.10;1.20;;;12.50;1.00;;;;;;20785182;28;20151;-40
2024/03/02 17:43:09;;;;;;;3.13;1.23;;;12.50;1.00;;;;;;20789348;28;20037;-40
2024/03/02 17:53:09;;;;;;;4.65;1.60;;;12.50;1.00;;;;;;20766935;28;20152;-40
2024/03/02 18:03:10;;;;;;;4.00;1.50;;;12.40;1.00;;;;;;20787015;28;20040;-40
2024/03/02 18:13:10;;;;;;;4.93;1.27;;;12.40;1.00;;;;;;20784134;28;20072;-40
2024/03/02 18:23:12;;;;;;;2.78;1.60;;;12.40;1.00;;;;;;20789242;28;20036;-39
2024/03/02 18:33:13;;;;;;;5.25;2.35;;;12.40;1.00;;;;;;20782065;28;20277;-40
2024/03/02 18:43:13;;;;;;;4.32;2.10;;;12.40;1.00;;;;;;20764933;28;20049;-40
2024/03/02 18:53:14;;;;;;;3.45;2.08;;;12.30;1.00;;;;;;20782048;28;20034;-40
2024/03/02 19:03:16;;;;;;;3.00;1.80;;;12.30;1.00;;;;;;20769889;28;20041;-40
2024/03/02 19:13:17;;;;;;;5.10;2.35;;;12.20;1.00;;;;;;20767180;28;20455;-40
2024/03/02 19:23:17;;;;;;;5.28;2.88;;;12.10;1.00;;;;;;20777834;28;20033;-40
2024/03/02 19:33:18;;;;;;;5.18;2.53;;;12.10;1.00;;;;;;20757583;28;20045;-40
2024/03/02 19:43:20;;;;;;;5.60;2.63;;;12.10;1.00;;;;;;20783378;28;20044;-40
2024/03/02 19:53:20;;;;;;;3.55;2.30;;;12.00;1.00;;;;;;20783033;28;20049;-40
2024/03/02 20:03:22;;;;;;;5.32;2.75;;;12.00;1.00;;;;;;20766317;28;20469;-40
2024/03/02 20:13:23;;;;;;;4.50;2.58;;;11.90;1.00;;;;;;20782146;28;20210;-40
2024/03/02 20:23:23;;;;;;;5.68;2.20;;;11.80;1.00;;;;;;20783802;28;20045;-39
2024/03/02 20:33:24;;;;;;;4.40;2.15;;;11.80;1.00;;;;;;20788168;28;20038;-40
2024/03/02 20:43:25;;;;;;;4.90;2.10;;;11.80;1.00;;;;;;20778188;28;20470;-40
2024/03/02 20:53:26;;;;;;;4.78;2.33;;;11.60;1.00;;;;;;20781360;28;20397;-40
2024/03/02 21:03:26;;;;;;;4.70;2.78;;;11.50;1.00;;;;;;20761601;28;20041;-40
2024/03/02 21:13:27;;;;;;;6.95;4.70;;;11.50;1.00;;;;;;20767693;28;20045;-40
2024/03/02 21:23:30;;;;;;;6.53;3.25;;;11.50;1.00;;;;;;20790793;28;20030;-40
2024/03/02 21:33:31;;;;;;;5.35;3.50;;;11.40;1.00;;;;;;20799616;28;20508;-40
2024/03/02 21:43:33;;;;;;;6.25;3.30;;;11.30;1.00;;;;;;20788649;28;20037;-40
2024/03/02 21:53:33;;;;;;;8.38;3.97;;;11.20;1.00;;;;;;20792487;28;20123;-40
2024/03/02 22:03:34;;;;;;;6.95;3.97;;;11.10;1.00;;;;;;20786009;28;20048;-40
2024/03/02 22:13:36;;;;;;;5.50;3.40;;;11.10;1.00;;;;;;20772417;28;20481;-40
2024/03/02 22:23:37;;;;;;;5.90;3.80;;;11.00;1.00;;;;;;20787082;28;20033;-40
2024/03/02 22:33:38;;;;;;;6.03;3.67;;;11.00;1.00;;;;;;20781530;28;20133;-40
2024/03/02 22:43:39;;;;;;;6.57;3.88;;;10.90;1.00;;;;;;20782192;28;20401;-40
2024/03/02 22:53:39;;;;;;;7.07;3.58;;;10.80;1.00;;;;;;20768399;28;20038;-40
2024/03/02 23:03:40;;;;;;;5.55;3.45;;;10.80;1.00;;;;;;20770267;28;20033;-40
2024/03/02 23:13:40;;;;;;;5.32;3.08;;;10.90;1.00;;;;;;20777006;28;20049;-40
2024/03/02 23:23:41;;;;;;;3.95;2.53;;;11.00;1.00;;;;;;20789308;28;20390;-40
2024/03/02 23:33:42;;;;;;;3.80;2.55;;;11.20;1.00;;;;;;20770281;28;20108;-40
2024/03/02 23:43:42;;;;;;;3.83;2.00;;;11.30;1.00;;;;;;20776346;28;20037;-40
2024/03/02 23:53:43;;;;;;;4.60;2.42;;;11.40;1.00;;;;;;20751763;28;20045;-39
